Time;durP1;ratioP1;P1;durP2;ratioP2;P2;SDS_P1;SDS_P2;PMS_P1;PMS_P2;Temp;Humidity;BMP_temperature;BMP_pressure;BME280_temperature;BME280_humidity;BME280_pressure;Samples;Min_cycle;Max_cycle;Signal;HPM_P1;HPM_P2
2022/05/04 00:00:44;;;;;;;28.55;15.55;;;12.50;99.90;;;;;;5004494;28;20041;-70
2022/05/04 00:03:11;;;;;;;29.58;16.50;;;12.60;99.90;;;;;;5024058;28;20060;-71
2022/05/04 00:05:37;;;;;;;28.23;16.88;;;12.60;99.90;;;;;;5023071;28;20038;-71
2022/05/04 00:08:03;;;;;;;29.75;16.80;;;12.60;99.90;;;;;;4990568;28;20064;-70
2022/05/04 00:10:30;;;;;;;28.63;16.52;;;12.60;99.90;;;;;;5005894;28;20035;-70
2022/05/04 00:12:57;;;;;;;33.97;18.10;;;12.60;99.90;;;;;;5023938;28;20309;-69
2022/05/04 00:15:23;;;;;;;31.80;17.55;;;12.60;99.90;;;;;;5022154;28;20041;-71
2022/05/04 00:17:48;;;;;;;31.90;17.48;;;12.60;99.90;;;;;;5006614;28;20276;-71
2022/05/04 00:20:14;;;;;;;32.30;17.45;;;12.60;99.90;;;;;;5024172;28;20033;-70
2022/05/04 00:22:40;;;;;;;30.70;18.00;;;12.70;99.90;;;;;;5039305;28;20308;-71
2022/05/04 00:25:06;;;;;;;32.10;18.05;;;12.70;99.90;;;;;;4990210;28;20072;-71
2022/05/04 00:27:33;;;;;;;33.97;19.40;;;12.70;99.90;;;;;;5038778;28;20338;-71
2022/05/04 00:29:58;;;;;;;32.03;18.77;;;12.80;99.90;;;;;;5023646;28;20022;-71
2022/05/04 00:32:24;;;;;;;30.40;18.05;;;12.80;99.90;;;;;;5023531;28;20014;-69
2022/05/04 00:34:50;;;;;;;32.28;17.52;;;12.70;99.90;;;;;;5022584;28;20026;-70
2022/05/04 00:37:16;;;;;;;33.40;17.40;;;12.80;99.90;;;;;;5022206;28;20021;-70
2022/05/04 00:39:41;;;;;;;30.98;16.75;;;12.70;99.90;;;;;;5038930;28;20174;-71
2022/05/04 00:42:09;;;;;;;30.75;16.38;;;12.70;99.90;;;;;;5022808;28;20033;-70
2022/05/04 00:44:35;;;;;;;29.30;17.42;;;12.60;99.90;;;;;;5023578;28;20063;-70
2022/05/04 00:47:00;;;;;;;28.08;16.83;;;12.60;99.90;;;;;;5012205;28;20019;-71
2022/05/04 00:49:26;;;;;;;27.40;17.13;;;12.60;99.90;;;;;;5019248;28;20090;-71
2022/05/04 00:51:52;;;;;;;25.85;16.77;;;12.60;99.90;;;;;;5003002;28;20128;-71
2022/05/04 00:54:18;;;;;;;25.08;15.23;;;12.50;99.90;;;;;;5018204;28;20069;-70
2022/05/04 00:56:44;;;;;;;25.95;15.50;;;12.50;99.90;;;;;;5003625;28;20073;-71
2022/05/04 00:59:10;;;;;;;22.65;13.93;;;12.50;99.90;;;;;;4984856;28;20064;-70
2022/05/04 01:01:36;;;;;;;25.23;14.00;;;12.50;99.90;;;;;;5010888;28;20309;-71
2022/05/04 01:04:02;;;;;;;22.48;14.02;;;12.40;99.90;;;;;;5023518;28;20037;-71
2022/05/04 01:06:28;;;;;;;19.90;13.23;;;12.40;99.90;;;;;;5022123;28;20397;-71
2022/05/04 01:08:55;;;;;;;24.77;14.60;;;12.40;99.90;;;;;;5022709;28;20224;-70
2022/05/04 01:11:21;;;;;;;21.48;14.23;;;12.40;99.90;;;;;;5023673;28;20026;-71
2022/05/04 01:14:08;;;;;;;21.58;13.23;;;12.40;99.90;;;;;;5021378;28;20026;-71
2022/05/04 01:16:35;;;;;;;21.10;14.68;;;12.30;99.90;;;;;;5008608;28;20262;-70
2022/05/04 01:19:02;;;;;;;22.55;14.68;;;12.30;99.90;;;;;;5038313;28;20089;-70
2022/05/04 01:21:27;;;;;;;23.48;14.05;;;12.30;99.90;;;;;;4989600;28;20037;-70
2022/05/04 01:23:54;;;;;;;26.70;15.00;;;12.20;99.90;;;;;;5023124;28;20301;-71
2022/05/04 01:26:20;;;;;;;25.10;15.30;;;12.10;99.90;;;;;;5022949;28;20026;-70
2022/05/04 01:28:46;;;;;;;22.98;15.10;;;12.20;99.90;;;;;;5022506;28;20119;-70
2022/05/04 01:31:12;;;;;;;25.33;15.75;;;12.20;99.90;;;;;;5022081;28;20034;-71
2022/05/04 01:33:38;;;;;;;22.75;14.50;;;12.10;99.90;;;;;;5038586;28;20030;-71
2022/05/04 01:36:04;;;;;;;23.67;15.20;;;12.10;99.90;;;;;;5021848;28;20029;-71
2022/05/04 01:38:30;;;;;;;24.65;15.85;;;12.00;99.90;;;;;;5021605;28;20034;-70
2022/05/04 01:40:56;;;;;;;22.85;15.55;;;12.00;99.90;;;;;;5022402;28;20021;-71
2022/05/04 01:43:21;;;;;;;23.40;14.95;;;11.90;99.90;;;;;;5003692;28;20321;-71
2022/05/04 01:45:47;;;;;;;31.00;16.30;;;11.80;99.90;;;;;;5002157;28;20022;-70
2022/05/04 01:48:13;;;;;;;29.08;17.70;;;11.80;99.90;;;;;;5003099;28;20065;-70
2022/05/04 01:50:39;;;;;;;30.85;18.85;;;11.80;99.90;;;;;;5003326;28;20253;-70
2022/05/04 01:53:05;;;;;;;32.78;20.60;;;11.70;99.90;;;;;;5005778;28;20042;-71
2022/05/04 01:55:33;;;;;;;36.55;20.50;;;11.60;99.90;;;;;;5006306;28;20310;-71
2022/05/04 01:57:59;;;;;;;39.20;21.67;;;11.60;99.90;;;;;;5006634;28;20030;-71
2022/05/04 02:00:25;;;;;;;37.45;22.23;;;11.60;99.90;;;;;;5004874;28;20022;-70
2022/05/04 02:02:52;;;;;;;40.65;22.55;;;11.60;99.90;;;;;;5025356;28;20182;-71
2022/05/04 02:05:18;;;;;;;43.75;23.77;;;11.60;99.90;;;;;;5041938;28;20305;-71
2022/05/04 02:07:44;;;;;;;37.70;23.63;;;11.60;99.90;;;;;;5025259;28;20034;-69
2022/05/04 02:10:11;;;;;;;40.03;23.83;;;11.60;99.90;;;;;;5041582;28;20049;-70
2022/05/04 02:12:37;;;;;;;43.03;25.70;;;11.60;99.90;;;;;;5024569;28;20014;-71
2022/05/04 02:15:04;;;;;;;44.55;25.17;;;11.60;99.90;;;;;;4992948;28;20049;-71
2022/05/04 02:17:30;;;;;;;44.25;25.83;;;11.60;99.90;;;;;;5025763;28;20026;-71
2022/05/04 02:19:56;;;;;;;48.35;27.30;;;11.50;99.90;;;;;;5026101;28;20402;-72
2022/05/04 02:22:22;;;;;;;43.08;25.10;;;11.60;99.90;;;;;;5041321;28;20040;-71
2022/05/04 02:24:47;;;;;;;47.03;27.35;;;11.60;99.90;;;;;;5025180;28;20220;-71
2022/05/04 02:27:13;;;;;;;57.42;29.30;;;11.60;99.90;;;;;;5024195;28;20070;-70
2022/05/04 02:29:39;;;;;;;50.78;27.58;;;11.60;99.90;;;;;;5024969;28;20022;-71
2022/05/04 02:32:05;;;;;;;46.65;27.17;;;11.60;99.90;;;;;;5008781;28;20021;-73
2022/05/04 02:34:31;;;;;;;49.28;28.08;;;11.70;99.90;;;;;;5026009;28;20344;-72
2022/05/04 02:39:42;;;;;;;49.38;29.83;;;11.60;99.90;;;;;;5038081;28;20312;-71
2022/05/04 02:42:08;;;;;;;58.45;31.58;;;11.60;99.90;;;;;;5025983;28;20029;-71
2022/05/04 02:44:33;;;;;;;55.85;31.10;;;11.60;99.90;;;;;;5040836;28;20268;-71
2022/05/04 02:46:59;;;;;;;55.33;31.08;;;11.50;99.90;;;;;;5015861;28;20186;-71
2022/05/04 02:49:25;;;;;;;56.63;31.58;;;11.50;99.90;;;;;;4988644;28;20022;-70
2022/05/04 02:51:51;;;;;;;53.53;31.48;;;11.50;99.90;;;;;;5005423;28;20097;-70
2022/05/04 02:54:17;;;;;;;59.25;33.03;;;11.50;99.90;;;;;;5004013;28;20356;-70
2022/05/04 02:56:42;;;;;;;56.13;31.73;;;11.50;99.90;;;;;;5005655;28;20093;-70
2022/05/04 02:59:08;;;;;;;56.20;30.17;;;11.50;99.90;;;;;;4987739;28;20037;-72
2022/05/04 03:04:19;;;;;;;50.25;29.02;;;11.40;99.90;;;;;;5037522;28;20060;-70
2022/05/04 03:06:47;;;;;;;48.17;26.85;;;11.40;99.90;;;;;;5025075;28;20253;-70
2022/05/04 03:09:12;;;;;;;44.97;25.00;;;11.40;99.90;;;;;;5024422;28;20030;-71
2022/05/04 03:14:27;;;;;;;36.78;23.02;;;11.40;99.90;;;;;;5038311;28;20041;-70
2022/05/04 03:16:53;;;;;;;37.25;23.25;;;11.50;99.90;;;;;;5024101;28;20025;-71
2022/05/04 03:19:20;;;;;;;39.30;22.23;;;11.50;99.90;;;;;;5023219;28;20068;-70
2022/05/04 03:21:47;;;;;;;36.67;20.92;;;11.50;99.90;;;;;;5025280;28;20081;-70
2022/05/04 03:24:12;;;;;;;32.03;19.50;;;11.40;99.90;;;;;;5023735;28;20208;-71
2022/05/04 03:26:38;;;;;;;33.03;19.88;;;11.40;99.90;;;;;;5023547;28;20033;-70
2022/05/04 03:29:04;;;;;;;33.35;20.90;;;11.40;99.90;;;;;;5023398;28;20332;-70
2022/05/04 03:31:30;;;;;;;37.33;20.63;;;11.40;99.90;;;;;;5024750;28;20221;-71
2022/05/04 03:33:56;;;;;;;33.70;18.13;;;11.40;99.90;;;;;;5024673;28;20084;-71
2022/05/04 03:36:22;;;;;;;30.50;18.70;;;11.40;99.90;;;;;;5040305;28;20017;-69
2022/05/04 03:38:47;;;;;;;28.45;18.42;;;11.40;99.90;;;;;;5023543;28;20190;-69
2022/05/04 03:41:13;;;;;;;32.50;17.77;;;11.40;99.90;;;;;;5023675;28;20250;-70
2022/05/04 03:43:39;;;;;;;30.75;18.20;;;11.40;99.90;;;;;;5023508;28;20033;-70
2022/05/04 03:46:21;;;;;;;31.02;18.73;;;11.30;99.90;;;;;;5021703;28;20018;-69
2022/05/04 03:48:49;;;;;;;33.47;17.38;;;11.30;99.90;;;;;;5020177;28;20084;-69
2022/05/04 03:51:18;;;;;;;28.17;18.33;;;11.30;99.90;;;;;;5005016;28;20022;-70
2022/05/04 03:53:45;;;;;;;27.05;16.25;;;11.30;99.90;;;;;;5020135;28;20046;-70
2022/05/04 03:56:11;;;;;;;26.98;16.92;;;11.30;99.90;;;;;;5004689;28;20018;-71
2022/05/04 03:58:37;;;;;;;28.10;16.63;;;11.30;99.90;;;;;;5003575;28;20349;-71
2022/05/04 04:01:04;;;;;;;31.80;18.23;;;11.30;99.90;;;;;;5007950;28;20376;-70
2022/05/04 04:03:30;;;;;;;28.00;18.13;;;11.30;99.90;;;;;;5021395;28;20049;-70
2022/05/04 04:05:55;;;;;;;35.47;18.20;;;11.30;99.90;;;;;;5023352;28;20030;-70
2022/05/04 04:08:21;;;;;;;25.85;16.48;;;11.40;99.90;;;;;;5006924;28;20022;-70
2022/05/04 04:10:47;;;;;;;25.83;16.80;;;11.40;99.90;;;;;;5023880;28;20074;-71
2022/05/04 04:13:13;;;;;;;30.35;18.70;;;11.40;99.90;;;;;;5039059;28;20371;-71
2022/05/04 04:15:39;;;;;;;28.63;18.08;;;11.40;99.90;;;;;;5023030;28;20033;-70
2022/05/04 04:18:05;;;;;;;27.60;16.95;;;11.40;99.90;;;;;;5023783;28;20324;-70
2022/05/04 04:23:16;;;;;;;30.50;18.67;;;11.50;99.90;;;;;;5022949;28;20026;-71
2022/05/04 04:25:42;;;;;;;31.05;18.05;;;11.50;99.90;;;;;;5038828;28;20071;-72
2022/05/04 04:28:09;;;;;;;30.40;18.38;;;11.50;99.90;;;;;;5005860;28;20026;-70
2022/05/04 04:30:37;;;;;;;28.95;18.45;;;11.50;99.90;;;;;;5022477;28;20030;-70
2022/05/04 04:33:03;;;;;;;29.40;18.63;;;11.60;99.90;;;;;;5022960;28;20042;-72
2022/05/04 04:35:29;;;;;;;31.98;19.58;;;11.70;99.90;;;;;;5022327;28;20293;-70
2022/05/04 04:37:55;;;;;;;30.10;19.30;;;11.70;99.90;;;;;;5022754;28;20021;-70
2022/05/04 04:40:20;;;;;;;30.52;18.90;;;11.70;99.90;;;;;;5022710;28;20090;-70
2022/05/04 04:42:46;;;;;;;31.20;19.23;;;11.70;99.90;;;;;;5006162;28;20069;-70
2022/05/04 04:45:12;;;;;;;32.45;19.45;;;11.80;99.90;;;;;;5022555;28;20022;-70
2022/05/04 04:47:37;;;;;;;39.08;21.42;;;11.80;99.90;;;;;;5007585;28;20046;-71
2022/05/04 04:50:03;;;;;;;31.85;20.30;;;11.80;99.90;;;;;;4986499;28;20018;-70
2022/05/04 04:52:29;;;;;;;30.80;20.90;;;11.80;99.90;;;;;;5002429;28;20046;-70
2022/05/04 04:54:55;;;;;;;34.15;20.23;;;11.80;99.90;;;;;;5002999;28;20022;-70
2022/05/04 04:57:20;;;;;;;28.58;17.20;;;11.80;99.90;;;;;;5002556;28;20030;-70
2022/05/04 04:59:48;;;;;;;28.48;17.70;;;11.80;99.90;;;;;;5002537;28;20022;-71
2022/05/04 05:02:14;;;;;;;30.90;17.60;;;11.80;99.90;;;;;;5016572;28;20093;-69
2022/05/04 05:04:40;;;;;;;28.00;16.70;;;11.80;99.90;;;;;;5021848;28;20248;-70
2022/05/04 05:07:05;;;;;;;27.38;15.60;;;11.80;99.90;;;;;;5022859;28;20068;-70
2022/05/04 05:09:31;;;;;;;20.88;14.23;;;11.80;99.90;;;;;;5023620;28;20026;-70
2022/05/04 05:11:57;;;;;;;20.02;13.77;;;11.80;99.90;;;;;;5005053;28;20045;-71
2022/05/04 05:17:08;;;;;;;22.00;12.88;;;11.80;99.90;;;;;;5022106;28;20022;-70
2022/05/04 05:19:34;;;;;;;17.92;11.13;;;11.90;99.90;;;;;;5021955;28;20057;-70
2022/05/04 05:21:59;;;;;;;16.27;11.52;;;11.90;99.90;;;;;;5023098;28;20403;-71
2022/05/04 05:24:25;;;;;;;16.05;11.65;;;12.00;99.90;;;;;;5022628;28;20021;-70
2022/05/04 05:26:50;;;;;;;17.65;10.50;;;12.00;99.90;;;;;;5005692;28;20075;-70
2022/05/04 05:29:16;;;;;;;14.27;9.85;;;12.00;99.90;;;;;;5027060;28;20288;-71
2022/05/04 05:31:42;;;;;;;13.48;9.48;;;12.00;99.90;;;;;;5009306;28;20061;-71
2022/05/04 05:34:07;;;;;;;14.88;9.82;;;12.10;99.90;;;;;;5009342;28;20018;-71
2022/05/04 05:36:33;;;;;;;11.73;8.68;;;12.10;99.90;;;;;;5025712;28;20029;-72
2022/05/04 05:38:59;;;;;;;12.05;9.10;;;12.20;99.90;;;;;;5042253;28;20022;-71
2022/05/04 05:41:25;;;;;;;14.30;9.20;;;12.30;99.90;;;;;;5007069;28;20024;-71
2022/05/04 05:43:52;;;;;;;12.80;8.50;;;12.30;99.90;;;;;;4989974;28;20018;-73
2022/05/04 05:46:18;;;;;;;11.43;8.23;;;12.30;99.90;;;;;;5005699;28;20344;-71
2022/05/04 05:48:47;;;;;;;13.63;8.75;;;12.30;99.90;;;;;;5007279;28;20022;-70
2022/05/04 05:51:13;;;;;;;12.23;8.70;;;12.30;99.90;;;;;;5004973;28;20026;-71
2022/05/04 05:53:38;;;;;;;13.30;9.00;;;12.30;99.90;;;;;;5021793;28;20069;-71
2022/05/04 05:56:04;;;;;;;11.25;8.43;;;12.40;99.90;;;;;;5004728;28;20291;-70
2022/05/04 05:58:30;;;;;;;14.30;9.00;;;12.40;99.90;;;;;;5005838;28;20093;-71
2022/05/04 06:00:56;;;;;;;17.38;9.98;;;12.40;99.90;;;;;;5010284;28;20200;-71
2022/05/04 06:03:22;;;;;;;14.88;9.50;;;12.40;99.90;;;;;;5024546;28;20022;-71
2022/05/04 06:05:48;;;;;;;19.45;10.60;;;12.40;99.90;;;;;;5024637;28;20061;-71
2022/05/04 06:08:13;;;;;;;15.27;10.15;;;12.40;99.90;;;;;;5024999;28;20026;-70
2022/05/04 06:10:40;;;;;;;17.92;10.35;;;12.40;99.90;;;;;;5026405;28;20034;-71
2022/05/04 06:13:06;;;;;;;12.88;9.05;;;12.30;99.90;;;;;;5024937;28;20041;-73
2022/05/04 06:15:32;;;;;;;13.65;9.98;;;12.30;99.90;;;;;;5024781;28;20287;-71
2022/05/04 06:17:58;;;;;;;15.30;9.85;;;12.30;99.90;;;;;;5025942;28;20088;-71
2022/05/04 06:20:24;;;;;;;19.00;10.77;;;12.30;99.90;;;;;;5041357;28;20041;-71
2022/05/04 06:22:50;;;;;;;15.52;10.07;;;12.30;99.90;;;;;;5026373;28;20041;-71
2022/05/04 06:25:16;;;;;;;15.38;10.38;;;12.40;99.90;;;;;;5025694;28;20060;-71
2022/05/04 06:27:42;;;;;;;18.30;10.60;;;12.50;99.90;;;;;;5025869;28;20037;-72
2022/05/04 06:35:39;;;;;;;18.52;10.68;;;12.80;99.90;;;;;;5024045;28;20029;-69
2022/05/04 06:38:05;;;;;;;13.20;9.70;;;12.90;99.90;;;;;;5025308;28;20018;-71
2022/05/04 06:40:31;;;;;;;19.38;10.20;;;12.90;99.90;;;;;;5018220;28;20030;-72
2022/05/04 06:42:57;;;;;;;18.27;9.57;;;13.00;99.90;;;;;;5008992;28;20245;-70
2022/05/04 06:45:23;;;;;;;17.13;8.95;;;13.10;99.90;;;;;;5005999;28;20018;-70
2022/05/04 06:47:49;;;;;;;11.20;8.45;;;13.10;99.90;;;;;;5006025;28;20018;-72
2022/05/04 06:50:15;;;;;;;13.18;8.98;;;13.10;99.90;;;;;;5004489;28;20337;-73
2022/05/04 06:52:41;;;;;;;14.15;9.55;;;13.10;99.90;;;;;;5003491;28;20055;-72
2022/05/04 06:55:08;;;;;;;20.65;9.45;;;13.10;99.90;;;;;;5004418;28;20026;-72
2022/05/04 06:57:34;;;;;;;13.88;8.13;;;13.20;99.90;;;;;;5004839;28;20021;-75
2022/05/04 07:00:04;;;;;;;12.20;7.60;;;13.30;99.90;;;;;;5020548;28;20093;-72
2022/05/04 07:02:31;;;;;;;10.15;7.47;;;13.40;99.90;;;;;;5009187;28;20033;-68
2022/05/04 07:04:56;;;;;;;12.25;7.90;;;13.40;99.90;;;;;;5018590;28;20026;-67
2022/05/04 07:07:22;;;;;;;13.60;7.43;;;13.40;99.90;;;;;;5004204;28;20336;-68
2022/05/04 07:09:48;;;;;;;10.52;6.85;;;13.50;99.90;;;;;;5003415;28;20046;-69
2022/05/04 07:12:13;;;;;;;11.27;7.10;;;13.50;99.90;;;;;;5018449;28;20026;-67
2022/05/04 07:14:39;;;;;;;11.55;7.40;;;13.50;99.90;;;;;;5004223;28;20030;-67
2022/05/04 07:17:05;;;;;;;10.63;7.63;;;13.50;99.90;;;;;;5003824;28;20022;-70
2022/05/04 07:19:31;;;;;;;12.38;7.32;;;13.50;99.90;;;;;;5004521;28;20046;-67
2022/05/04 07:21:56;;;;;;;14.38;7.53;;;13.60;99.90;;;;;;5001685;28;20093;-69
2022/05/04 07:24:22;;;;;;;10.45;7.40;;;13.70;99.90;;;;;;4988202;28;20237;-68
2022/05/04 07:26:48;;;;;;;10.38;7.18;;;13.70;99.90;;;;;;5003099;28;20079;-70
2022/05/04 07:29:13;;;;;;;13.35;7.07;;;13.80;99.90;;;;;;5003994;28;20085;-69
2022/05/04 07:31:39;;;;;;;9.05;7.35;;;13.80;99.90;;;;;;5018784;28;20311;-69
2022/05/04 07:34:05;;;;;;;8.63;7.03;;;13.80;99.90;;;;;;5002374;28;20033;-68
2022/05/04 07:36:32;;;;;;;11.00;7.05;;;13.80;99.90;;;;;;5001825;28;20286;-69
2022/05/04 07:38:57;;;;;;;12.40;6.68;;;13.80;99.90;;;;;;5001640;28;20031;-68
2022/05/04 07:44:08;;;;;;;9.63;7.00;;;13.80;99.90;;;;;;4988041;28;20034;-70
2022/05/04 07:46:34;;;;;;;17.95;8.15;;;13.70;99.90;;;;;;5002815;28;20036;-71
2022/05/04 07:49:00;;;;;;;15.90;7.07;;;13.60;99.90;;;;;;5002201;28;20421;-68
2022/05/04 07:51:26;;;;;;;12.90;7.22;;;13.70;99.90;;;;;;4969113;28;20036;-68
2022/05/04 07:53:52;;;;;;;14.32;6.88;;;13.70;99.90;;;;;;4995220;28;20068;-68
2022/05/04 07:56:17;;;;;;;13.02;6.82;;;13.80;99.90;;;;;;4984443;28;20036;-68
2022/05/04 07:58:43;;;;;;;9.52;6.63;;;13.80;99.90;;;;;;4994285;28;20050;-72
2022/05/04 08:06:42;;;;;;;7.38;5.38;;;13.90;99.90;;;;;;5000255;28;20018;-69
2022/05/04 08:09:08;;;;;;;14.73;6.15;;;13.80;99.90;;;;;;5001268;28;20030;-71
2022/05/04 08:11:34;;;;;;;10.85;5.43;;;13.70;99.90;;;;;;4985004;28;20280;-68
2022/05/04 08:13:59;;;;;;;13.07;5.78;;;13.70;99.90;;;;;;5001994;28;20037;-67
2022/05/04 08:16:25;;;;;;;6.07;5.07;;;13.70;99.90;;;;;;5002305;28;20038;-70
2022/05/04 08:18:51;;;;;;;6.95;5.63;;;13.70;99.90;;;;;;5017853;28;20029;-71
2022/05/04 08:21:17;;;;;;;8.75;4.93;;;13.70;99.90;;;;;;4984774;28;20068;-69
2022/05/04 08:23:42;;;;;;;9.02;5.65;;;13.60;99.90;;;;;;5000675;28;20066;-68
2022/05/04 08:26:12;;;;;;;11.43;5.13;;;13.60;99.90;;;;;;4984761;28;20025;-67
2022/05/04 08:28:38;;;;;;;9.38;4.95;;;13.60;99.90;;;;;;4985272;28;20110;-69
2022/05/04 08:31:05;;;;;;;12.25;5.60;;;13.50;99.90;;;;;;5001250;28;20057;-68
2022/05/04 08:33:31;;;;;;;8.68;5.28;;;13.50;99.90;;;;;;5016788;28;20318;-69
2022/05/04 08:35:57;;;;;;;10.50;5.60;;;13.50;99.90;;;;;;4985453;28;20022;-70
2022/05/04 08:38:22;;;;;;;11.65;6.57;;;13.60;99.90;;;;;;5001521;28;20034;-71
2022/05/04 08:40:55;;;;;;;13.15;6.03;;;13.60;99.90;;;;;;5017906;28;20022;-70
2022/05/04 08:43:24;;;;;;;8.65;5.93;;;13.70;99.90;;;;;;5001315;28;20030;-68
2022/05/04 08:45:52;;;;;;;8.23;6.18;;;13.60;99.90;;;;;;4985470;28;20037;-71
2022/05/04 08:48:19;;;;;;;14.00;5.22;;;13.60;99.90;;;;;;5017088;28;20033;-69
2022/05/04 08:50:45;;;;;;;9.38;5.20;;;13.70;99.90;;;;;;5000497;28;20324;-67
2022/05/04 08:53:12;;;;;;;9.63;5.75;;;13.80;99.90;;;;;;5018062;28;20050;-69
2022/05/04 08:55:39;;;;;;;10.73;5.55;;;13.90;99.90;;;;;;5000469;28;20080;-68
2022/05/04 08:58:05;;;;;;;9.73;5.40;;;14.00;99.90;;;;;;5017530;28;20268;-69
2022/05/04 09:00:32;;;;;;;11.20;5.10;;;14.20;99.90;;;;;;4984227;28;20018;-70
2022/05/04 09:02:57;;;;;;;9.82;5.82;;;14.20;99.90;;;;;;4995494;28;20034;-69
2022/05/04 09:05:27;;;;;;;6.88;4.78;;;14.20;99.90;;;;;;4985253;28;20017;-70
2022/05/04 09:07:56;;;;;;;7.00;4.93;;;14.20;99.90;;;;;;4999882;28;20206;-68
2022/05/04 09:10:27;;;;;;;8.50;5.32;;;14.30;99.90;;;;;;4985517;28;20089;-69
2022/05/04 09:12:55;;;;;;;11.17;5.70;;;14.40;99.90;;;;;;4997698;28;20026;-69
2022/05/04 09:15:25;;;;;;;6.70;4.53;;;14.70;99.90;;;;;;4982205;28;20610;-68
2022/05/04 09:18:10;;;;;;;6.03;4.28;;;14.80;99.90;;;;;;5000791;28;20034;-69
2022/05/04 09:20:55;;;;;;;8.10;4.32;;;14.90;99.90;;;;;;4985531;28;20029;-68
2022/05/04 09:23:28;;;;;;;5.72;3.60;;;14.90;99.90;;;;;;5001670;28;20084;-68
2022/05/04 09:26:05;;;;;;;6.30;4.05;;;15.00;99.90;;;;;;4999372;28;20086;-68
2022/05/04 09:28:32;;;;;;;6.50;3.60;;;15.00;99.90;;;;;;5001183;28;20026;-70
2022/05/04 09:31:03;;;;;;;6.68;3.55;;;15.10;99.90;;;;;;5018091;28;20038;-70
2022/05/04 09:33:33;;;;;;;7.15;2.80;;;15.10;99.90;;;;;;5002655;28;20097;-70
2022/05/04 09:36:00;;;;;;;3.45;3.10;;;15.20;99.30;;;;;;4993677;28;20026;-70
2022/05/04 09:46:55;;;;;;;4.72;2.35;;;16.00;96.60;;;;;;5010260;28;20274;-68
2022/05/04 09:49:27;;;;;;;2.65;2.10;;;16.00;96.80;;;;;;5002716;28;20058;-71
2022/05/04 09:51:54;;;;;;;4.13;2.38;;;16.10;96.70;;;;;;5001169;28;20061;-69
2022/05/04 09:54:22;;;;;;;4.13;1.83;;;16.30;96.50;;;;;;4984280;28;20054;-69
2022/05/04 09:56:50;;;;;;;2.55;1.65;;;16.30;95.80;;;;;;4991229;28;20076;-69
2022/05/04 09:59:19;;;;;;;2.90;1.60;;;16.30;95.90;;;;;;5002534;28;20026;-68
2022/05/04 10:01:46;;;;;;;2.03;1.63;;;16.30;96.20;;;;;;4983790;28;20063;-69
2022/05/04 10:04:11;;;;;;;4.50;1.65;;;16.50;96.10;;;;;;5017565;28;20026;-68
2022/05/04 10:06:38;;;;;;;3.78;1.50;;;16.50;95.80;;;;;;5000396;28;20081;-69
2022/05/04 10:09:05;;;;;;;7.63;1.85;;;16.50;96.40;;;;;;4985813;28;20033;-71
2022/05/04 10:11:36;;;;;;;1.25;1.10;;;16.70;96.00;;;;;;4981164;28;20348;-69
2022/05/04 10:14:07;;;;;;;3.20;1.27;;;16.90;95.70;;;;;;4984495;28;20034;-69
2022/05/04 10:16:57;;;;;;;3.75;1.60;;;17.10;94.80;;;;;;4968394;28;20019;-69
2022/05/04 10:19:36;;;;;;;5.85;2.00;;;16.80;94.80;;;;;;5004746;28;20080;-69
2022/05/04 10:22:05;;;;;;;3.30;1.45;;;16.60;95.30;;;;;;5004929;28;20026;-69
2022/05/04 10:24:35;;;;;;;3.72;1.23;;;16.70;95.30;;;;;;5003817;28;20035;-69
2022/05/04 10:27:17;;;;;;;2.90;1.52;;;16.60;95.00;;;;;;5020778;28;20025;-72
2022/05/04 10:32:42;;;;;;;2.13;1.50;;;16.20;96.00;;;;;;5004707;28;20030;-71
2022/05/04 10:35:29;;;;;;;1.75;1.17;;;16.30;95.90;;;;;;5004603;28;20324;-70
2022/05/04 10:38:15;;;;;;;2.78;1.13;;;16.50;95.40;;;;;;4989687;28;20050;-70
2022/05/04 10:41:02;;;;;;;2.97;1.20;;;16.80;95.10;;;;;;5003020;28;20026;-68
2022/05/04 10:43:50;;;;;;;3.30;1.17;;;16.90;94.70;;;;;;4987499;28;20114;-69
2022/05/04 10:46:20;;;;;;;8.15;1.80;;;16.90;94.60;;;;;;5002408;28;20089;-69
2022/05/04 10:49:07;;;;;;;5.78;1.30;;;16.90;95.00;;;;;;5009360;28;20053;-69
2022/05/04 10:51:36;;;;;;;4.88;1.45;;;16.70;94.90;;;;;;4977444;28;20106;-67
2022/05/04 10:54:10;;;;;;;3.70;1.58;;;16.70;95.10;;;;;;4986880;28;20062;-73
2022/05/04 10:56:55;;;;;;;5.72;1.50;;;16.50;95.40;;;;;;5001540;28;20029;-69
2022/05/04 10:59:35;;;;;;;2.25;1.08;;;16.50;95.40;;;;;;5002260;28;20029;-71
2022/05/04 11:02:05;;;;;;;3.60;1.20;;;16.70;95.30;;;;;;4999685;28;20068;-70
2022/05/04 11:04:32;;;;;;;2.90;1.20;;;16.80;94.50;;;;;;5019885;28;20302;-70
2022/05/04 11:07:08;;;;;;;3.17;1.20;;;16.90;94.30;;;;;;5019518;28;20022;-70
2022/05/04 11:09:39;;;;;;;4.22;1.38;;;17.00;94.10;;;;;;5002279;28;20022;-72
2022/05/04 11:12:07;;;;;;;8.23;1.90;;;16.90;93.70;;;;;;4987550;28;20097;-70
2022/05/04 11:14:34;;;;;;;3.72;1.45;;;16.80;93.70;;;;;;4986640;28;20038;-70
2022/05/04 11:17:01;;;;;;;2.67;1.48;;;16.50;93.90;;;;;;5018470;28;20407;-70
2022/05/04 11:19:29;;;;;;;4.75;1.50;;;16.50;94.60;;;;;;5019712;28;20031;-71
2022/05/04 11:21:56;;;;;;;7.55;1.60;;;16.70;94.30;;;;;;5003564;28;20089;-71
2022/05/04 11:24:26;;;;;;;8.63;2.35;;;16.60;94.00;;;;;;4986994;28;20093;-69
2022/05/04 11:26:52;;;;;;;5.50;1.95;;;16.80;94.30;;;;;;4987056;28;20025;-71
2022/05/04 11:29:23;;;;;;;5.35;2.05;;;16.80;93.90;;;;;;5003610;28;20023;-72
2022/05/04 11:31:54;;;;;;;4.15;1.75;;;16.90;93.90;;;;;;4988070;28;20097;-70
2022/05/04 11:34:21;;;;;;;;;;;16.90;93.10;;;;;;5004168;28;20038;-71
2022/05/04 11:36:50;;;;;;;5.22;2.60;;;16.70;94.00;;;;;;5003246;28;20060;-69
2022/05/04 11:39:21;;;;;;;4.40;2.08;;;16.60;93.80;;;;;;5003694;28;20023;-70
2022/05/04 11:41:48;;;;;;;;;;;16.60;94.40;;;;;;5020347;28;20018;-71
2022/05/04 11:44:21;;;;;;;3.53;1.85;;;16.60;94.70;;;;;;5001850;28;20141;-71
2022/05/04 11:46:48;;;;;;;3.58;1.73;;;16.70;94.60;;;;;;5018530;28;20317;-72
2022/05/04 11:49:14;;;;;;;2.65;1.48;;;16.80;94.50;;;;;;5003769;28;20192;-70
2022/05/04 11:51:41;;;;;;;3.63;1.90;;;16.60;93.00;;;;;;5003569;28;20216;-69
2022/05/04 11:54:07;;;;;;;9.25;2.00;;;16.60;93.80;;;;;;5002526;28;20062;-70
2022/05/04 11:56:34;;;;;;;3.83;2.15;;;16.90;93.60;;;;;;4986110;28;20040;-70
2022/05/04 11:59:00;;;;;;;8.95;2.35;;;17.10;93.00;;;;;;4986027;28;20025;-71
2022/05/04 12:01:26;;;;;;;7.97;1.80;;;17.20;92.80;;;;;;5010406;28;20018;-70
2022/05/04 12:03:52;;;;;;;4.13;1.98;;;17.40;93.00;;;;;;5022924;28;20021;-69
2022/05/04 12:06:19;;;;;;;2.60;1.80;;;17.70;92.10;;;;;;5005931;28;20049;-69
2022/05/04 12:08:46;;;;;;;4.65;1.80;;;17.70;92.20;;;;;;5022413;28;20030;-71
2022/05/04 12:11:12;;;;;;;7.90;2.40;;;17.70;92.40;;;;;;5020304;28;20042;-72
2022/05/04 12:13:40;;;;;;;6.03;2.35;;;17.60;93.20;;;;;;5024093;28;20018;-71
2022/05/04 12:16:07;;;;;;;6.35;2.42;;;17.40;92.10;;;;;;5005761;28;20025;-71
2022/05/04 12:18:35;;;;;;;4.18;2.47;;;17.40;92.60;;;;;;5003737;28;20340;-73
2022/05/04 12:21:20;;;;;;;7.88;2.45;;;17.30;91.80;;;;;;5018078;28;20064;-71
2022/05/04 12:23:48;;;;;;;4.65;1.98;;;17.50;91.80;;;;;;5003674;28;20385;-68
2022/05/04 12:26:15;;;;;;;5.03;2.30;;;17.50;91.70;;;;;;5002526;28;20022;-68
2022/05/04 12:28:43;;;;;;;2.33;2.13;;;17.60;91.50;;;;;;4985649;28;20026;-68
2022/05/04 12:33:57;;;;;;;3.78;2.88;;;17.70;91.90;;;;;;5016949;28;20027;-70
2022/05/04 12:36:24;;;;;;;6.97;3.08;;;17.70;91.90;;;;;;5001786;28;20048;-71
2022/05/04 12:38:52;;;;;;;5.85;3.50;;;17.50;91.80;;;;;;5003727;28;20015;-71
2022/05/04 12:41:20;;;;;;;7.32;3.58;;;17.40;92.10;;;;;;5019393;28;20089;-74
2022/05/04 12:43:48;;;;;;;6.63;3.28;;;17.40;92.50;;;;;;5004825;28;20030;-71
2022/05/04 12:46:16;;;;;;;4.10;3.08;;;17.50;92.60;;;;;;5020195;28;20301;-71
2022/05/04 12:48:44;;;;;;;2.97;2.78;;;17.50;92.90;;;;;;5019346;28;20026;-70
2022/05/04 12:51:10;;;;;;;7.90;3.63;;;17.60;93.10;;;;;;4980191;28;20034;-70
2022/05/04 12:53:38;;;;;;;4.80;3.22;;;17.80;92.80;;;;;;4985344;28;20102;-69
2022/05/04 12:58:52;;;;;;;4.25;3.20;;;18.10;92.20;;;;;;5002185;28;20010;-72
2022/05/04 13:01:24;;;;;;;5.70;2.72;;;18.20;92.30;;;;;;4989932;28;20085;-69
2022/05/04 13:03:50;;;;;;;5.80;2.65;;;18.20;92.00;;;;;;5018095;28;20022;-70
2022/05/04 13:06:17;;;;;;;6.80;2.80;;;18.00;92.00;;;;;;5017742;28;20029;-71
2022/05/04 13:08:44;;;;;;;3.60;2.00;;;18.00;92.10;;;;;;5001790;28;20019;-71
2022/05/04 13:11:09;;;;;;;3.10;2.47;;;18.00;92.00;;;;;;5001855;28;20069;-69
2022/05/04 13:13:35;;;;;;;2.53;1.80;;;17.80;92.10;;;;;;5002517;28;20289;-69
2022/05/04 13:16:01;;;;;;;5.82;2.42;;;17.50;92.60;;;;;;5003118;28;20113;-69
2022/05/04 13:18:26;;;;;;;3.35;2.25;;;17.40;92.40;;;;;;5003320;28;20189;-70
2022/05/04 13:20:53;;;;;;;3.47;2.10;;;17.30;93.50;;;;;;5003268;28;20026;-69